createdAt,value
2022-08-11T00:00:02.605Z,101623.91
2022-08-11T00:02:35.349Z,101620.78
2022-08-11T00:05:12.378Z,101621.00
2022-08-11T00:07:44.577Z,101619.53
2022-08-11T00:10:17.751Z,101621.69
2022-08-11T00:12:50.376Z,101617.72
2022-08-11T00:15:17.314Z,101616.25
2022-08-11T00:17:44.813Z,101620.06
2022-08-11T00:20:16.568Z,101622.19
2022-08-11T00:22:46.962Z,101624.31
2022-08-11T00:25:19.244Z,101618.00
2022-08-11T00:27:47.395Z,101623.91
2022-08-11T00:30:15.625Z,101626.03
2022-08-11T00:32:45.371Z,101618.25
2022-08-11T00:35:51.250Z,101623.94
2022-08-11T00:38:03.238Z,101622.47
2022-08-11T00:41:08.644Z,101619.13
2022-08-11T00:43:53.478Z,101619.34
2022-08-11T00:46:26.095Z,101618.09
2022-08-11T00:49:16.232Z,101620.25
2022-08-11T00:52:21.605Z,101618.78
2022-08-11T00:54:59.963Z,101620.28
2022-08-11T00:58:04.022Z,101630.00
2022-08-11T01:00:56.350Z,101623.06
2022-08-11T01:04:00.829Z,101625.38
2022-08-11T01:06:51.881Z,101626.91
2022-08-11T01:09:27.836Z,101624.81
2022-08-11T01:11:57.733Z,101626.72
2022-08-11T01:14:52.070Z,101618.94
2022-08-11T01:17:43.587Z,101621.72
2022-08-11T01:20:59.462Z,101625.09
2022-08-11T01:24:02.539Z,101628.50
2022-08-11T01:26:44.147Z,101621.78
2022-08-11T01:29:19.613Z,101625.41
2022-08-11T01:32:16.412Z,101625.59
2022-08-11T01:35:01.424Z,101624.97
2022-08-11T01:37:36.712Z,101622.88
2022-08-11T01:40:19.311Z,101627.94
2022-08-11T01:43:32.689Z,101628.38
2022-08-11T01:46:13.109Z,101625.00
2022-08-11T01:48:49.992Z,101620.16
2022-08-11T01:51:25.277Z,101632.38
2022-08-11T01:54:04.507Z,101628.41
2022-08-11T01:56:58.153Z,101626.94
2022-08-11T02:00:06.613Z,101623.59
2022-08-11T02:03:08.454Z,101630.31
2022-08-11T02:05:48.209Z,101631.59
2022-08-11T02:08:39.668Z,101629.09
2022-08-11T02:11:37.446Z,101631.38
2022-08-11T02:14:22.339Z,101634.34
2022-08-11T02:16:59.050Z,101634.56
2022-08-11T02:19:52.840Z,101628.25
2022-08-11T02:22:50.404Z,101621.31
2022-08-11T02:25:34.920Z,101634.16
2022-08-11T02:28:08.861Z,101631.63
2022-08-11T02:30:41.724Z,101625.31
2022-08-11T02:33:30.420Z,101630.78
2022-08-11T02:36:22.429Z,101629.31
2022-08-11T02:39:09.969Z,101620.28
2022-08-11T02:42:35.470Z,101629.53
2022-08-11T02:45:05.500Z,101620.72
2022-08-11T02:48:04.058Z,101630.78
2022-08-11T02:50:35.466Z,101626.59
2022-08-11T02:53:11.302Z,101629.31
2022-08-11T02:56:00.931Z,101624.09
2022-08-11T02:58:44.224Z,101619.69
2022-08-11T03:01:23.684Z,101623.44
2022-08-11T03:04:13.117Z,101627.25
2022-08-11T03:06:50.039Z,101628.28
2022-08-11T03:09:24.976Z,101631.25
2022-08-11T03:12:28.658Z,101634.19
2022-08-11T03:15:49.125Z,101632.50
2022-08-11T03:18:28.399Z,101629.34
2022-08-11T03:21:07.174Z,101630.41
2022-08-11T03:23:53.033Z,101635.25
2022-08-11T03:26:43.077Z,101634.63
2022-08-11T03:29:37.589Z,101630.44
2022-08-11T03:32:21.115Z,101627.88
2022-08-11T03:34:50.809Z,101629.13
2022-08-11T03:37:50.352Z,101624.09
2022-08-11T03:40:38.330Z,101628.72
2022-08-11T03:43:22.097Z,101624.50
2022-08-11T03:46:07.729Z,101636.72
2022-08-11T03:48:57.185Z,101624.06
2022-08-11T03:51:44.898Z,101631.66
2022-08-11T03:54:33.057Z,101628.31
2022-08-11T03:57:41.163Z,101632.28
2022-08-11T04:01:03.882Z,101629.75
2022-08-11T04:03:39.675Z,101633.97
2022-08-11T04:06:25.067Z,101634.59
2022-08-11T04:09:06.737Z,101630.16
2022-08-11T04:11:54.113Z,101626.00
2022-08-11T04:15:03.601Z,101622.63
2022-08-11T04:18:08.959Z,101623.66
2022-08-11T04:20:56.844Z,101627.44
2022-08-11T04:24:12.887Z,101627.88
2022-08-11T04:27:15.172Z,101625.13
2022-08-11T04:30:04.029Z,101625.34
2022-08-11T04:33:01.134Z,101620.72
2022-08-11T04:35:50.896Z,101619.69
2022-08-11T04:38:39.404Z,101608.75
2022-08-11T04:42:11.284Z,101618.63
2022-08-11T04:45:16.854Z,101618.19
2022-08-11T04:48:07.778Z,101618.19
2022-08-11T04:51:42.363Z,101611.28
2022-08-11T04:54:47.423Z,101607.06
2022-08-11T04:57:47.794Z,101611.91
2022-08-11T05:00:33.135Z,101607.91
2022-08-11T05:03:35.453Z,101612.53
2022-08-11T05:06:20.358Z,101603.91
2022-08-11T05:09:18.990Z,101616.72
2022-08-11T05:12:13.378Z,101612.34
2022-08-11T05:15:09.193Z,101613.38
2022-08-11T05:18:17.121Z,101613.16
2022-08-11T05:21:14.516Z,101615.88
2022-08-11T05:24:05.897Z,101617.75
2022-08-11T05:27:03.237Z,101620.47
2022-08-11T05:30:04.837Z,101619.41
2022-08-11T05:33:01.964Z,101626.53
2022-08-11T05:36:01.800Z,101625.47
2022-08-11T05:38:52.445Z,101629.84
2022-08-11T05:41:46.877Z,101627.09
2022-08-11T05:44:39.397Z,101624.31
2022-08-11T05:47:25.590Z,101623.50
2022-08-11T05:50:13.814Z,101621.56
2022-08-11T05:53:04.424Z,101627.84
2022-08-11T05:56:01.731Z,101623.63
2022-08-11T05:58:41.204Z,101619.53
2022-08-11T06:01:09.621Z,101626.28
2022-08-11T06:03:58.231Z,101625.38
2022-08-11T06:06:27.044Z,101625.56
2022-08-11T06:08:58.045Z,101622.81
2022-08-11T06:11:43.603Z,101617.72
2022-08-11T06:14:12.480Z,101620.19
2022-08-11T06:16:41.840Z,101625.63
2022-08-11T06:19:09.836Z,101620.56
2022-08-11T06:21:37.585Z,101623.47
2022-08-11T06:24:12.849Z,101628.06
2022-08-11T06:27:10.708Z,101628.00
2022-08-11T06:29:48.147Z,101626.91
2022-08-11T06:32:27.314Z,101621.34
2022-08-11T06:35:21.720Z,101631.19
2022-08-11T06:38:12.004Z,101621.00
2022-08-11T06:41:16.294Z,101624.53
2022-08-11T06:44:05.953Z,101622.09
2022-08-11T06:46:39.617Z,101624.59
2022-08-11T06:49:30.352Z,101624.91
2022-08-11T06:52:04.517Z,101624.97
2022-08-11T06:54:38.580Z,101628.22
2022-08-11T06:57:31.921Z,101624.94
2022-08-11T07:00:18.725Z,101626.69
2022-08-11T07:03:00.990Z,101627.56
2022-08-11T07:05:49.609Z,101627.69
2022-08-11T07:08:49.787Z,101626.03
2022-08-11T07:11:53.632Z,101628.38
2022-08-11T07:14:43.587Z,101623.97
2022-08-11T07:17:17.317Z,101619.31
2022-08-11T07:20:09.091Z,101618.53
2022-08-11T07:22:55.628Z,101617.50
2022-08-11T07:25:44.630Z,101621.91
2022-08-11T07:28:36.015Z,101626.59
2022-08-11T07:31:07.663Z,101621.69
2022-08-11T07:34:08.076Z,101626.34
2022-08-11T07:36:39.775Z,101618.13
2022-08-11T07:39:10.858Z,101613.91
2022-08-11T07:41:37.617Z,101609.44
2022-08-11T07:44:11.579Z,101613.72
2022-08-11T07:47:12.239Z,101620.88
2022-08-11T07:49:59.099Z,101611.41
2022-08-11T07:52:33.857Z,101608.84
2022-08-11T07:55:03.410Z,101602.13
2022-08-11T07:58:13.946Z,101613.59
2022-08-11T08:01:02.135Z,101609.91
2022-08-11T08:03:53.985Z,101610.69
2022-08-11T08:06:40.814Z,101603.69
2022-08-11T08:09:26.791Z,101606.63
2022-08-11T08:12:12.174Z,101605.16
2022-08-11T08:14:57.641Z,101609.75
2022-08-11T08:17:44.920Z,101616.53
2022-08-11T08:20:47.234Z,101602.63
2022-08-11T08:23:14.580Z,101609.03
2022-08-11T08:25:43.857Z,101606.13
2022-08-11T08:28:17.554Z,101618.66
2022-08-11T08:30:48.198Z,101606.56
2022-08-11T08:33:20.861Z,101607.00
2022-08-11T08:35:55.804Z,101605.13
2022-08-11T08:38:23.793Z,101607.72
2022-08-11T08:40:56.272Z,101601.16
2022-08-11T08:43:24.537Z,101605.41
2022-08-11T08:45:56.879Z,101599.19
2022-08-11T08:48:26.395Z,101611.69
2022-08-11T08:51:16.524Z,101597.44
2022-08-11T08:53:56.290Z,101595.63
2022-08-11T08:56:28.546Z,101600.44
2022-08-11T08:58:59.005Z,101590.56
2022-08-11T09:01:36.165Z,101592.59
2022-08-11T09:04:11.807Z,101589.94
2022-08-11T09:06:42.998Z,101598.88
2022-08-11T09:09:12.209Z,101594.78
2022-08-11T09:11:55.663Z,101589.03
2022-08-11T09:14:25.240Z,101590.50
2022-08-11T09:16:53.538Z,101587.19
2022-08-11T09:19:21.574Z,101595.28
2022-08-11T09:22:10.416Z,101587.53
2022-08-11T09:24:56.897Z,101590.06
2022-08-11T09:27:25.262Z,101586.22
2022-08-11T09:29:52.731Z,101582.97
2022-08-11T09:32:22.119Z,101586.09
2022-08-11T09:34:52.003Z,101582.81
2022-08-11T09:37:55.672Z,101577.84
2022-08-11T09:40:30.595Z,101578.19
2022-08-11T09:43:18.596Z,101576.28
2022-08-11T09:45:51.313Z,101582.13
2022-08-11T09:48:24.552Z,101568.03
2022-08-11T09:50:55.259Z,101573.31
2022-08-11T09:53:36.380Z,101563.63
2022-08-11T09:56:30.524Z,101565.91
2022-08-11T09:58:58.175Z,101567.28
2022-08-11T10:01:30.543Z,101569.25
2022-08-11T10:04:22.794Z,101570.91
2022-08-11T10:07:05.522Z,101569.53
2022-08-11T10:09:50.551Z,101560.41
2022-08-11T10:12:28.199Z,101566.22
2022-08-11T10:15:17.344Z,101568.19
2022-08-11T10:18:07.205Z,101562.38
2022-08-11T10:20:37.863Z,101552.97
2022-08-11T10:23:23.986Z,101547.97
2022-08-11T10:26:09.426Z,101541.31
2022-08-11T10:28:55.870Z,101536.34
2022-08-11T10:31:53.550Z,101543.56
2022-08-11T10:34:29.231Z,101532.75
2022-08-11T10:36:58.404Z,101529.69
2022-08-11T10:39:26.988Z,101536.94
2022-08-11T10:42:25.569Z,101539.13
2022-08-11T10:44:59.050Z,101524.16
2022-08-11T10:47:34.985Z,101523.59
2022-08-11T10:50:38.103Z,101524.41
2022-08-11T10:53:23.217Z,101523.56
2022-08-11T10:56:08.973Z,101512.75
2022-08-11T10:58:49.775Z,101506.66
2022-08-11T11:01:22.861Z,101515.50
2022-08-11T11:03:52.721Z,101515.78
2022-08-11T11:06:28.196Z,101510.50
2022-08-11T11:09:05.362Z,101515.81
2022-08-11T11:11:55.763Z,101513.28
2022-08-11T11:14:46.725Z,101502.41
2022-08-11T11:17:26.427Z,101497.13
2022-08-11T11:19:58.583Z,101503.19
2022-08-11T11:22:38.422Z,101494.00
2022-08-11T11:26:07.095Z,101491.22
2022-08-11T11:28:52.197Z,101493.13
2022-08-11T11:31:51.816Z,101489.50
2022-08-11T11:34:53.634Z,101500.06
2022-08-11T11:37:23.820Z,101495.59
2022-08-11T11:39:51.394Z,101488.63
2022-08-11T11:42:18.561Z,101488.59
2022-08-11T11:44:46.900Z,101487.19
2022-08-11T11:47:14.254Z,101477.41
2022-08-11T11:49:44.076Z,101470.94
2022-08-11T11:52:19.651Z,101470.88
2022-08-11T11:54:50.261Z,101467.50
2022-08-11T11:57:36.768Z,101462.97
2022-08-11T12:00:33.372Z,101470.41
2022-08-11T12:03:03.284Z,101463.66
2022-08-11T12:05:33.583Z,101459.19
2022-08-11T12:08:18.049Z,101457.47
2022-08-11T12:11:12.410Z,101462.16
2022-08-11T12:13:44.615Z,101459.31
2022-08-11T12:16:33.723Z,101454.31
2022-08-11T12:19:01.152Z,101444.81
2022-08-11T12:21:29.380Z,101432.84
2022-08-11T12:24:16.818Z,101438.41
2022-08-11T12:27:14.816Z,101439.78
2022-08-11T12:29:36.540Z,101427.03
2022-08-11T12:32:08.963Z,101432.31
2022-08-11T12:34:36.530Z,101423.75
2022-08-11T12:37:05.798Z,101427.13
2022-08-11T12:40:16.658Z,101430.19
2022-08-11T12:43:21.253Z,101421.00
2022-08-11T12:45:54.023Z,101419.88
2022-08-11T12:48:59.636Z,101417.66
2022-08-11T12:52:10.933Z,101415.41
2022-08-11T12:54:57.070Z,101418.13
2022-08-11T12:57:49.975Z,101413.09
2022-08-11T13:00:36.661Z,101409.75
2022-08-11T13:03:24.398Z,101405.84
2022-08-11T13:05:55.495Z,101401.09
2022-08-11T13:08:26.526Z,101405.84
2022-08-11T13:11:13.270Z,101406.16
2022-08-11T13:13:54.215Z,101404.19
2022-08-11T13:16:52.873Z,101406.97
2022-08-11T13:19:21.782Z,101396.94
2022-08-11T13:21:50.727Z,101402.53
2022-08-11T13:24:19.067Z,101390.28
2022-08-11T13:26:48.406Z,101386.91
2022-08-11T13:29:25.446Z,101379.59
2022-08-11T13:31:56.036Z,101381.81
2022-08-11T13:34:25.500Z,101377.06
2022-08-11T13:36:55.063Z,101383.47
2022-08-11T13:39:25.896Z,101373.97
2022-08-11T13:41:56.692Z,101375.66
2022-08-11T13:44:27.090Z,101377.31
2022-08-11T13:46:57.805Z,101380.03
2022-08-11T13:49:25.107Z,101378.06
2022-08-11T13:51:52.624Z,101371.66
2022-08-11T13:54:23.770Z,101370.56
2022-08-11T13:56:54.010Z,101361.38
2022-08-11T13:59:29.548Z,101366.94
2022-08-11T14:02:21.734Z,101363.88
2022-08-11T14:04:57.332Z,101355.50
2022-08-11T14:07:35.468Z,101348.53
2022-08-11T14:10:04.335Z,101351.84
2022-08-11T14:12:52.117Z,101346.50
2022-08-11T14:15:25.197Z,101347.56
2022-08-11T14:18:01.649Z,101356.41
2022-08-11T14:20:50.915Z,101336.44
2022-08-11T14:23:19.287Z,101331.97
2022-08-11T14:26:04.457Z,101338.69
2022-08-11T14:28:39.949Z,101335.06
2022-08-11T14:31:11.287Z,101339.50
2022-08-11T14:34:01.001Z,101340.31
2022-08-11T14:36:28.625Z,101342.00
2022-08-11T14:38:55.824Z,101335.56
2022-08-11T14:42:10.484Z,101341.69
2022-08-11T14:44:51.885Z,101340.78
2022-08-11T14:47:23.963Z,101328.75
2022-08-11T14:49:58.624Z,101335.94
2022-08-11T14:52:49.191Z,101326.69
2022-08-11T14:55:36.669Z,101333.53
2022-08-11T14:58:04.234Z,101315.91
2022-08-11T15:00:32.460Z,101324.72
2022-08-11T15:03:12.936Z,101321.31
2022-08-11T15:05:56.428Z,101329.06
2022-08-11T15:08:46.924Z,101311.53
2022-08-11T15:11:34.074Z,101320.19
2022-08-11T15:14:03.489Z,101315.75
2022-08-11T15:16:49.027Z,101304.91
2022-08-11T15:19:16.872Z,101308.19
2022-08-11T15:22:01.771Z,101303.47
2022-08-11T15:24:30.746Z,101307.38
2022-08-11T15:27:19.505Z,101301.81
2022-08-11T15:30:06.576Z,101306.88
2022-08-11T15:32:53.934Z,101298.53
2022-08-11T15:35:39.861Z,101291.81
2022-08-11T15:38:06.679Z,101300.09
2022-08-11T15:40:57.355Z,101286.16
2022-08-11T15:44:14.269Z,101282.84
2022-08-11T15:46:47.256Z,101287.59
2022-08-11T15:49:22.017Z,101289.56
2022-08-11T15:52:01.555Z,101282.84
2022-08-11T15:54:32.001Z,101280.59
2022-08-11T15:57:01.780Z,101278.91
2022-08-11T15:59:50.996Z,101287.81
2022-08-11T16:02:40.201Z,101278.31
2022-08-11T16:05:09.848Z,101278.25
2022-08-11T16:07:40.961Z,101271.44
2022-08-11T16:10:19.010Z,101267.97
2022-08-11T16:13:07.466Z,101265.00
2022-08-11T16:16:21.627Z,101260.91
2022-08-11T16:18:56.423Z,101262.56
2022-08-11T16:21:35.088Z,101257.03
2022-08-11T16:24:06.579Z,101248.66
2022-08-11T16:27:11.529Z,101255.88
2022-08-11T16:29:25.154Z,101249.34
2022-08-11T16:32:13.528Z,101245.91
2022-08-11T16:35:00.620Z,101244.09
2022-08-11T16:37:46.959Z,101251.53
2022-08-11T16:40:15.163Z,101244.75
2022-08-11T16:43:11.103Z,101244.47
2022-08-11T16:45:59.503Z,101245.03
2022-08-11T16:48:35.711Z,101243.09
2022-08-11T16:51:08.101Z,101236.47
2022-08-11T16:53:59.607Z,101230.91
2022-08-11T16:56:27.285Z,101237.22
2022-08-11T16:59:16.281Z,101233.00
2022-08-11T17:02:38.566Z,101238.03
2022-08-11T17:05:30.112Z,101237.06
2022-08-11T17:08:19.466Z,101241.53
2022-08-11T17:11:28.822Z,101241.38
2022-08-11T17:13:59.532Z,101227.06
2022-08-11T17:16:39.928Z,101230.03
2022-08-11T17:19:13.311Z,101222.97
2022-08-11T17:22:06.792Z,101229.06
2022-08-11T17:24:40.592Z,101235.50
2022-08-11T17:27:08.860Z,101226.28
2022-08-11T17:29:53.586Z,101226.28
2022-08-11T17:32:55.756Z,101226.78
2022-08-11T17:35:32.948Z,101222.81
2022-08-11T17:38:18.047Z,101226.13
2022-08-11T17:41:10.932Z,101228.91
2022-08-11T17:44:05.347Z,101227.59
2022-08-11T17:46:52.923Z,101227.09
2022-08-11T17:49:20.533Z,101212.63
2022-08-11T17:52:07.896Z,101222.34
2022-08-11T17:54:55.247Z,101220.50
2022-08-11T17:57:47.068Z,101218.06
2022-08-11T18:00:14.890Z,101214.75
2022-08-11T18:03:02.682Z,101223.34
2022-08-11T18:05:31.765Z,101218.19
2022-08-11T18:08:19.944Z,101224.16
2022-08-11T18:11:06.499Z,101223.81
2022-08-11T18:13:55.418Z,101220.19
2022-08-11T18:16:40.867Z,101224.97
2022-08-11T18:19:26.829Z,101219.38
2022-08-11T18:22:20.429Z,101223.47
2022-08-11T18:25:11.964Z,101225.78
2022-08-11T18:28:00.884Z,101230.56
2022-08-11T18:30:48.837Z,101224.16
2022-08-11T18:34:06.340Z,101225.44
2022-08-11T18:36:46.138Z,101232.13
2022-08-11T18:39:33.080Z,101234.47
2022-08-11T18:42:29.157Z,101227.06
2022-08-11T18:45:18.845Z,101236.16
2022-08-11T18:48:07.218Z,101233.38
2022-08-11T18:51:05.794Z,101239.75
2022-08-11T18:54:06.151Z,101235.13
2022-08-11T18:56:51.900Z,101246.88
2022-08-11T18:59:42.213Z,101243.78
2022-08-11T19:02:28.828Z,101256.56
2022-08-11T19:05:16.961Z,101250.13
2022-08-11T19:08:07.240Z,101259.72
2022-08-11T19:10:53.168Z,101256.78
2022-08-11T19:13:43.334Z,101257.31
2022-08-11T19:16:29.839Z,101258.72
2022-08-11T19:19:15.419Z,101265.56
2022-08-11T19:22:01.374Z,101272.66
2022-08-11T19:24:49.395Z,101270.59
2022-08-11T19:27:36.529Z,101274.31
2022-08-11T19:30:23.463Z,101280.53
2022-08-11T19:33:09.858Z,101274.81
2022-08-11T19:35:55.716Z,101286.19
2022-08-11T19:38:41.530Z,101282.94
2022-08-11T19:41:52.336Z,101288.53
2022-08-11T19:44:34.832Z,101282.44
2022-08-11T19:47:21.132Z,101284.09
2022-08-11T19:50:07.553Z,101286.06
2022-08-11T19:52:55.000Z,101279.94
2022-08-11T19:55:40.923Z,101289.63
2022-08-11T19:58:26.362Z,101290.44
2022-08-11T20:01:11.207Z,101288.75
2022-08-11T20:03:56.399Z,101292.31
2022-08-11T20:06:42.351Z,101285.41
2022-08-11T20:10:06.036Z,101293.97
2022-08-11T20:12:36.123Z,101290.06
2022-08-11T20:15:22.161Z,101290.56
2022-08-11T20:18:07.469Z,101289.69
2022-08-11T20:20:53.406Z,101294.09
2022-08-11T20:23:39.387Z,101297.63
2022-08-11T20:26:31.318Z,101299.75
2022-08-11T20:29:18.489Z,101303.56
2022-08-11T20:32:08.434Z,101293.56
2022-08-11T20:34:56.730Z,101303.16
2022-08-11T20:37:50.247Z,101311.66
2022-08-11T20:40:39.855Z,101298.91
2022-08-11T20:44:08.348Z,101308.28
2022-08-11T20:46:38.425Z,101303.53
2022-08-11T20:49:44.307Z,101301.03
2022-08-11T20:52:34.389Z,101293.78
2022-08-11T20:55:26.144Z,101307.53
2022-08-11T20:58:30.834Z,101302.25
2022-08-11T21:01:39.005Z,101300.50
2022-08-11T21:04:26.538Z,101298.53
2022-08-11T21:07:15.241Z,101306.19
2022-08-11T21:10:23.008Z,101308.66
2022-08-11T21:13:26.012Z,101308.03
2022-08-11T21:16:22.730Z,101301.63
2022-08-11T21:19:15.329Z,101301.56
2022-08-11T21:22:01.672Z,101307.28
2022-08-11T21:24:51.172Z,101311.09
2022-08-11T21:27:38.797Z,101309.09
2022-08-11T21:30:24.707Z,101305.44
2022-08-11T21:33:11.906Z,101317.53
2022-08-11T21:35:57.274Z,101314.66
2022-08-11T21:38:43.849Z,101319.28
2022-08-11T21:41:30.030Z,101309.03
2022-08-11T21:44:16.758Z,101313.66
2022-08-11T21:47:04.635Z,101316.34
2022-08-11T21:49:50.632Z,101313.75
2022-08-11T21:52:36.503Z,101312.28
2022-08-11T21:55:21.921Z,101313.06
2022-08-11T21:58:07.826Z,101320.41
2022-08-11T22:00:53.255Z,101320.34
2022-08-11T22:03:49.834Z,101313.34
2022-08-11T22:06:36.841Z,101318.75
2022-08-11T22:09:22.514Z,101319.50
2022-08-11T22:12:34.110Z,101313.94
2022-08-11T22:15:13.691Z,101313.84
2022-08-11T22:17:58.583Z,101311.84
2022-08-11T22:20:45.666Z,101314.28
2022-08-11T22:23:36.130Z,101307.84
2022-08-11T22:26:22.928Z,101305.84
2022-08-11T22:29:08.324Z,101316.53
2022-08-11T22:31:56.135Z,101310.69
2022-08-11T22:34:52.572Z,101307.03
2022-08-11T22:37:40.361Z,101305.00
2022-08-11T22:40:27.980Z,101306.84
2022-08-11T22:43:13.121Z,101309.50
2022-08-11T22:45:58.433Z,101307.50
2022-08-11T22:48:46.920Z,101315.38
2022-08-11T22:51:33.382Z,101305.13
2022-08-11T22:54:21.450Z,101314.97
2022-08-11T22:57:07.409Z,101310.22
2022-08-11T22:59:54.460Z,101305.44
2022-08-11T23:02:40.453Z,101303.44
2022-08-11T23:05:27.546Z,101309.69
2022-08-11T23:08:15.288Z,101306.84
2022-08-11T23:11:01.703Z,101308.41
2022-08-11T23:13:49.351Z,101302.56
2022-08-11T23:16:36.082Z,101301.63
2022-08-11T23:20:06.765Z,101310.38
2022-08-11T23:22:33.775Z,101312.75
2022-08-11T23:25:33.314Z,101309.69
2022-08-11T23:28:20.763Z,101309.34
2022-08-11T23:31:07.967Z,101308.38
2022-08-11T23:33:56.945Z,101304.44
2022-08-11T23:36:47.230Z,101306.25
2022-08-11T23:39:33.936Z,101301.47
2022-08-11T23:42:19.662Z,101305.56
2022-08-11T23:45:05.561Z,101297.19
2022-08-11T23:47:56.476Z,101296.03
2022-08-11T23:50:41.931Z,101292.91
2022-08-11T23:53:27.375Z,101289.00
2022-08-11T23:56:13.423Z,101289.47
2022-08-11T23:58:59.359Z,101284.44
